createdAt,value
2019-05-21T00:01:30.541Z,107.63
2019-05-21T00:06:35.564Z,109.80
2019-05-21T00:11:39.287Z,116.40
2019-05-21T00:16:43.024Z,131.53
2019-05-21T00:21:47.017Z,119.00
2019-05-21T00:26:50.990Z,113.60
2019-05-21T00:32:31.567Z,109.60
2019-05-21T00:38:11.574Z,122.47
2019-05-21T00:43:15.990Z,129.80
2019-05-21T00:48:19.946Z,105.13
2019-05-21T00:53:24.046Z,100.03
2019-05-21T00:58:28.361Z,113.97
2019-05-21T01:03:32.155Z,110.13
2019-05-21T01:08:36.135Z,116.93
2019-05-21T01:13:40.341Z,108.53
2019-05-21T01:18:44.335Z,106.80
2019-05-21T01:23:48.822Z,115.47
2019-05-21T01:28:52.911Z,108.00
2019-05-21T01:33:56.728Z,120.03
2019-05-21T01:39:00.457Z,108.80
2019-05-21T01:44:04.308Z,115.20
2019-05-21T01:49:08.324Z,119.50
2019-05-21T01:54:12.064Z,126.87
2019-05-21T01:59:15.782Z,115.93
2019-05-21T02:04:19.602Z,135.60
2019-05-21T02:09:23.346Z,104.97
2019-05-21T02:14:27.146Z,109.50
2019-05-21T02:19:32.345Z,122.73
2019-05-21T02:24:36.171Z,113.03
2019-05-21T02:29:40.155Z,128.27
2019-05-21T02:34:43.895Z,111.67
2019-05-21T02:39:47.727Z,135.10
2019-05-21T02:44:54.395Z,116.70
2019-05-21T02:49:57.241Z,134.20
2019-05-21T02:55:02.237Z,119.17
2019-05-21T03:00:08.076Z,61.53
2019-05-21T03:05:14.856Z,133.50
2019-05-21T03:10:19.048Z,142.13
2019-05-21T03:15:22.924Z,121.33
2019-05-21T03:20:27.693Z,130.33
2019-05-21T03:25:32.372Z,121.93
2019-05-21T03:30:36.098Z,138.53
2019-05-21T03:35:39.893Z,123.53
2019-05-21T03:40:43.868Z,134.87
2019-05-21T03:45:47.632Z,123.40
2019-05-21T03:50:51.846Z,128.50
2019-05-21T03:55:56.881Z,121.40
2019-05-21T04:01:00.747Z,129.00
2019-05-21T04:06:05.182Z,121.83
2019-05-21T04:11:09.218Z,137.17
2019-05-21T04:16:27.703Z,140.77
2019-05-21T04:21:31.514Z,146.33
2019-05-21T04:26:35.223Z,131.80
2019-05-21T04:31:38.957Z,140.93
2019-05-21T04:36:43.175Z,159.40
2019-05-21T04:41:47.185Z,129.40
2019-05-21T04:46:51.147Z,104.33
2019-05-21T04:51:54.856Z,111.43
2019-05-21T04:56:58.565Z,92.03
2019-05-21T05:02:02.369Z,102.03
2019-05-21T05:07:07.632Z,99.97
2019-05-21T05:12:13.086Z,91.87
2019-05-21T05:17:18.307Z,113.27
2019-05-21T05:22:22.102Z,105.83
2019-05-21T05:27:26.093Z,96.17
2019-05-21T05:32:34.866Z,98.50
2019-05-21T05:37:44.347Z,102.57
2019-05-21T05:42:44.946Z,109.20
2019-05-21T05:47:48.736Z,104.97
2019-05-21T05:52:53.447Z,119.73
2019-05-21T05:57:58.575Z,95.57
2019-05-21T06:03:02.372Z,109.93
2019-05-21T06:08:06.183Z,109.33
2019-05-21T06:13:09.979Z,123.83
2019-05-21T06:18:14.791Z,119.30
2019-05-21T06:23:18.635Z,122.50
2019-05-21T06:28:22.400Z,119.40
2019-05-21T06:33:26.261Z,160.47
2019-05-21T06:38:30.023Z,67.63
2019-05-21T06:43:33.807Z,51.27
2019-05-21T06:48:37.563Z,151.70
2019-05-21T06:53:42.360Z,38.87
2019-05-21T06:58:46.193Z,111.03
2019-05-21T07:03:50.095Z,91.60
2019-05-21T07:08:53.867Z,289.33
2019-05-21T07:13:57.651Z,139.80
2019-05-21T07:19:02.370Z,126.27
2019-05-21T07:24:06.228Z,608.40
2019-05-21T07:29:29.552Z,72.37
2019-05-21T07:34:34.333Z,999.90
2019-05-21T07:39:38.402Z,999.90
2019-05-21T07:44:42.156Z,999.90
2019-05-21T07:49:46.419Z,999.90
2019-05-21T07:54:50.199Z,453.57
2019-05-21T07:59:54.023Z,999.90
2019-05-21T08:04:57.856Z,999.90
2019-05-21T08:10:01.988Z,731.47
2019-05-21T08:15:06.317Z,999.90
2019-05-21T08:20:11.148Z,999.90
2019-05-21T08:25:15.328Z,974.53
2019-05-21T08:30:19.826Z,999.90
2019-05-21T08:35:24.185Z,999.90
2019-05-21T08:40:27.955Z,878.93
2019-05-21T08:45:32.030Z,999.90
2019-05-21T08:50:35.797Z,999.90
2019-05-21T08:55:39.681Z,999.90
2019-05-21T09:00:43.584Z,999.90
2019-05-21T09:05:47.600Z,999.90
2019-05-21T09:10:51.388Z,999.90
2019-05-21T09:15:55.431Z,999.90
2019-05-21T09:20:59.273Z,999.90
2019-05-21T09:26:03.023Z,999.90
2019-05-21T09:31:07.129Z,999.90
2019-05-21T09:36:10.927Z,999.90
2019-05-21T09:41:14.696Z,999.90
2019-05-21T09:46:18.554Z,999.90
2019-05-21T09:51:22.908Z,999.90
2019-05-21T09:56:33.102Z,999.90
2019-05-21T10:01:47.460Z,999.90
2019-05-21T10:06:48.583Z,999.90
2019-05-21T10:11:52.499Z,997.40
2019-05-21T10:16:56.841Z,999.90
2019-05-21T10:22:00.630Z,999.90
2019-05-21T10:27:05.015Z,999.90
2019-05-21T10:32:08.748Z,999.90
2019-05-21T10:37:12.586Z,999.90
2019-05-21T10:42:18.089Z,999.90
2019-05-21T10:47:21.916Z,999.90
2019-05-21T10:52:25.778Z,957.93
2019-05-21T10:57:30.541Z,907.47
2019-05-21T11:02:49.840Z,999.90
2019-05-21T11:07:53.725Z,999.90
2019-05-21T11:12:57.537Z,999.90
2019-05-21T11:18:10.483Z,952.83
2019-05-21T11:23:06.816Z,999.90
2019-05-21T11:28:10.579Z,831.70
2019-05-21T11:33:14.612Z,999.90
2019-05-21T11:38:19.893Z,999.90
2019-05-21T11:43:24.946Z,934.00
2019-05-21T11:48:29.642Z,999.90
2019-05-21T11:53:34.315Z,999.90
2019-05-21T11:58:39.826Z,979.10
2019-05-21T12:03:43.868Z,999.90
2019-05-21T12:08:56.209Z,980.80
2019-05-21T12:13:53.162Z,973.40
2019-05-21T12:18:57.340Z,987.90
2019-05-21T12:24:01.205Z,999.90
2019-05-21T12:29:05.110Z,937.37
2019-05-21T12:34:08.881Z,959.67
2019-05-21T12:39:14.653Z,958.97
2019-05-21T12:44:18.267Z,956.97
2019-05-21T12:49:22.076Z,966.03
2019-05-21T12:54:26.056Z,999.90
2019-05-21T12:59:29.957Z,914.07
2019-05-21T13:04:33.711Z,998.00
2019-05-21T13:09:37.812Z,990.23
2019-05-21T13:14:41.623Z,778.93
2019-05-21T13:19:45.438Z,999.90
2019-05-21T13:24:49.204Z,934.17
2019-05-21T13:29:53.651Z,999.90
2019-05-21T13:34:57.453Z,999.90
2019-05-21T13:40:01.222Z,875.83
2019-05-21T13:45:05.975Z,999.90
2019-05-21T13:50:10.264Z,689.53
2019-05-21T13:55:14.308Z,976.77
2019-05-21T14:00:25.472Z,999.90
2019-05-21T14:05:29.487Z,964.07
2019-05-21T14:10:34.110Z,765.87
2019-05-21T14:15:38.183Z,837.27
2019-05-21T14:20:41.910Z,999.90
2019-05-21T14:25:46.022Z,999.90
2019-05-21T14:30:49.934Z,999.90
2019-05-21T14:35:53.696Z,999.90
2019-05-21T14:40:57.547Z,999.90
2019-05-21T14:46:01.315Z,999.90
2019-05-21T14:51:05.755Z,965.20
2019-05-21T14:56:09.514Z,957.57
2019-05-21T15:01:13.359Z,908.13
2019-05-21T15:06:17.622Z,999.90
2019-05-21T15:11:21.412Z,999.90
2019-05-21T15:16:25.792Z,999.90
2019-05-21T15:21:34.241Z,999.90
2019-05-21T15:26:38.147Z,999.90
2019-05-21T15:31:42.026Z,999.90
2019-05-21T15:36:45.794Z,985.17
2019-05-21T15:41:49.645Z,999.90
2019-05-21T15:46:53.778Z,999.90
2019-05-21T15:51:57.592Z,921.57
2019-05-21T15:57:01.713Z,967.90
2019-05-21T16:02:05.952Z,999.90
2019-05-21T16:07:09.786Z,999.90
2019-05-21T16:12:13.528Z,999.90
2019-05-21T16:17:17.565Z,977.03
2019-05-21T16:22:21.291Z,999.90
2019-05-21T16:27:25.215Z,999.90
2019-05-21T16:32:29.040Z,999.90
2019-05-21T16:37:32.776Z,999.90
2019-05-21T16:42:36.648Z,999.90
2019-05-21T16:47:46.063Z,904.53
2019-05-21T16:52:46.235Z,999.90
2019-05-21T16:57:50.488Z,999.90
2019-05-21T17:02:54.411Z,999.90
2019-05-21T17:07:58.254Z,999.90
2019-05-21T17:13:02.130Z,999.90
2019-05-21T17:18:05.952Z,999.90
2019-05-21T17:23:09.851Z,993.77
2019-05-21T17:28:13.578Z,999.90
2019-05-21T17:33:17.435Z,999.90
2019-05-21T17:38:24.401Z,999.90
2019-05-21T17:43:26.809Z,774.03
2019-05-21T17:48:30.667Z,999.90
2019-05-21T17:53:34.624Z,849.27
2019-05-21T17:58:38.467Z,926.87
2019-05-21T18:03:43.221Z,409.30
2019-05-21T18:08:47.338Z,348.17
2019-05-21T18:13:53.891Z,584.93
2019-05-21T18:18:59.059Z,329.10
2019-05-21T18:24:03.001Z,816.57
2019-05-21T18:29:07.063Z,148.17
2019-05-21T18:34:11.033Z,179.53
2019-05-21T18:39:15.079Z,123.47
2019-05-21T18:44:18.925Z,167.93
2019-05-21T18:49:23.060Z,145.20
2019-05-21T18:54:26.847Z,128.60
2019-05-21T18:59:34.600Z,115.87
2019-05-21T19:04:39.874Z,115.27
2019-05-21T19:09:48.665Z,110.57
2019-05-21T19:14:58.277Z,102.37
2019-05-21T19:20:11.815Z,103.23
2019-05-21T19:25:21.575Z,107.47
2019-05-21T19:30:36.387Z,97.37
2019-05-21T19:35:50.853Z,105.30
2019-05-21T19:40:55.150Z,108.30
2019-05-21T19:46:07.838Z,106.90
2019-05-21T19:51:11.896Z,111.73
2019-05-21T19:56:16.267Z,105.93
2019-05-21T20:01:20.027Z,109.07
2019-05-21T20:06:24.052Z,104.97
2019-05-21T20:11:28.068Z,99.00
2019-05-21T20:16:33.016Z,109.07
2019-05-21T20:21:38.368Z,104.23
2019-05-21T20:26:42.783Z,109.13
2019-05-21T20:31:46.896Z,101.23
2019-05-21T20:36:52.144Z,110.47
2019-05-21T20:41:55.867Z,118.47
2019-05-21T20:47:00.607Z,106.13
2019-05-21T20:52:18.045Z,100.47
2019-05-21T20:57:12.945Z,97.97
2019-05-21T21:02:16.851Z,97.40
2019-05-21T21:07:20.715Z,86.50
2019-05-21T21:12:25.364Z,82.40
2019-05-21T21:17:29.416Z,103.17
2019-05-21T21:22:33.324Z,100.60
2019-05-21T21:27:37.786Z,112.97
2019-05-21T21:32:43.119Z,115.63
2019-05-21T21:37:47.590Z,113.70
2019-05-21T21:42:52.808Z,117.87
2019-05-21T21:47:57.108Z,103.00
2019-05-21T21:53:01.032Z,133.00
2019-05-21T21:58:05.367Z,110.47
2019-05-21T22:03:10.731Z,137.23
2019-05-21T22:08:15.665Z,115.70
2019-05-21T22:13:20.131Z,86.23
2019-05-21T22:18:26.385Z,118.20
2019-05-21T22:23:30.606Z,119.70
2019-05-21T22:28:36.012Z,114.57
2019-05-21T22:33:40.749Z,137.40
2019-05-21T22:38:45.516Z,137.87
2019-05-21T22:43:50.047Z,98.80
2019-05-21T22:48:54.265Z,96.40
2019-05-21T22:53:58.915Z,145.47
2019-05-21T22:59:03.634Z,97.57
2019-05-21T23:04:08.179Z,110.67
2019-05-21T23:09:13.292Z,99.80
2019-05-21T23:14:17.341Z,100.17
2019-05-21T23:19:24.317Z,113.90
2019-05-21T23:24:29.649Z,143.70
2019-05-21T23:29:33.663Z,92.23
2019-05-21T23:34:38.417Z,110.87
2019-05-21T23:39:43.286Z,104.93
2019-05-21T23:44:47.302Z,131.37
2019-05-21T23:49:51.278Z,108.07
2019-05-21T23:54:55.070Z,94.60
2019-05-21T23:59:58.798Z,117.97
